createdAt,value
2018-06-03T00:00:03.743Z,74.14
2018-06-03T00:02:33.090Z,74.34
2018-06-03T00:05:02.426Z,74.25
2018-06-03T00:07:31.765Z,74.32
2018-06-03T00:10:01.105Z,74.71
2018-06-03T00:12:31.195Z,74.46
2018-06-03T00:15:00.500Z,74.56
2018-06-03T00:17:29.824Z,74.45
2018-06-03T00:19:59.932Z,74.60
2018-06-03T00:22:32.101Z,74.79
2018-06-03T00:25:01.425Z,75.23
2018-06-03T00:27:31.518Z,75.61
2018-06-03T00:30:00.852Z,75.83
2018-06-03T00:32:30.950Z,75.52
2018-06-03T00:35:00.289Z,75.73
2018-06-03T00:37:29.612Z,75.57
2018-06-03T00:39:58.929Z,75.17
2018-06-03T00:42:28.269Z,75.34
2018-06-03T00:44:57.604Z,75.58
2018-06-03T00:47:26.927Z,75.35
2018-06-03T00:49:56.272Z,75.41
2018-06-03T00:52:25.601Z,75.64
2018-06-03T00:54:54.918Z,75.44
2018-06-03T00:57:24.244Z,75.17
2018-06-03T00:59:53.585Z,74.92
2018-06-03T01:02:22.907Z,74.89
2018-06-03T01:04:53.016Z,75.20
2018-06-03T01:07:22.357Z,75.17
2018-06-03T01:09:51.677Z,75.51
2018-06-03T01:12:21.021Z,75.30
2018-06-03T01:14:50.341Z,75.25
2018-06-03T01:17:20.426Z,75.24
2018-06-03T01:19:49.751Z,75.16
2018-06-03T01:22:19.079Z,75.05
2018-06-03T01:24:49.416Z,75.05
2018-06-03T01:27:18.759Z,74.90
2018-06-03T01:29:48.060Z,74.32
2018-06-03T01:32:17.425Z,73.64
2018-06-03T01:34:46.729Z,72.90
2018-06-03T01:37:16.057Z,72.71
2018-06-03T01:39:45.380Z,72.59
2018-06-03T01:42:14.718Z,72.53
2018-06-03T01:44:44.034Z,72.43
2018-06-03T01:47:13.356Z,72.23
2018-06-03T01:49:42.692Z,72.29
2018-06-03T01:52:12.020Z,72.32
2018-06-03T01:54:42.113Z,72.24
2018-06-03T01:57:11.454Z,72.17
2018-06-03T01:59:41.526Z,72.19
2018-06-03T02:02:10.874Z,72.13
2018-06-03T02:04:40.951Z,72.18
2018-06-03T02:07:10.277Z,72.33
2018-06-03T02:09:39.611Z,72.37
2018-06-03T02:12:08.909Z,72.22
2018-06-03T02:14:38.252Z,72.35
2018-06-03T02:17:07.550Z,72.48
2018-06-03T02:19:36.904Z,72.46
2018-06-03T02:22:06.991Z,72.52
2018-06-03T02:24:36.290Z,72.49
2018-06-03T02:27:05.641Z,72.43
2018-06-03T02:29:35.725Z,72.45
2018-06-03T02:32:05.053Z,72.52
2018-06-03T02:34:35.133Z,72.55
2018-06-03T02:37:04.450Z,72.58
2018-06-03T02:39:33.796Z,72.63
2018-06-03T02:42:03.102Z,72.77
2018-06-03T02:44:32.433Z,72.83
2018-06-03T02:47:02.511Z,72.77
2018-06-03T02:49:32.621Z,72.82
2018-06-03T02:52:02.698Z,72.86
2018-06-03T02:54:32.044Z,72.84
2018-06-03T02:57:02.115Z,72.86
2018-06-03T02:59:31.451Z,72.88
2018-06-03T03:02:00.789Z,72.93
2018-06-03T03:04:30.905Z,73.10
2018-06-03T03:07:00.996Z,73.16
2018-06-03T03:09:30.331Z,73.10
2018-06-03T03:11:59.650Z,73.20
2018-06-03T03:14:28.975Z,73.28
2018-06-03T03:16:58.300Z,73.29
2018-06-03T03:19:27.638Z,73.31
2018-06-03T03:21:57.719Z,73.49
2018-06-03T03:24:27.041Z,73.54
2018-06-03T03:26:57.136Z,73.48
2018-06-03T03:29:26.471Z,73.43
2018-06-03T03:31:56.503Z,73.41
2018-06-03T03:34:26.572Z,73.37
2018-06-03T03:36:55.891Z,73.32
2018-06-03T03:39:25.228Z,73.24
2018-06-03T03:41:55.320Z,73.22
2018-06-03T03:44:24.643Z,73.18
2018-06-03T03:46:53.985Z,73.21
2018-06-03T03:49:23.326Z,73.22
2018-06-03T03:51:52.652Z,73.36
2018-06-03T03:54:22.745Z,73.46
2018-06-03T03:56:52.089Z,73.56
2018-06-03T03:59:22.175Z,73.70
2018-06-03T04:01:51.513Z,74.03
2018-06-03T04:04:20.842Z,74.30
2018-06-03T04:06:50.153Z,74.30
2018-06-03T04:09:19.461Z,74.26
2018-06-03T04:11:48.808Z,74.12
2018-06-03T04:14:18.881Z,74.06
2018-06-03T04:16:48.233Z,74.05
2018-06-03T04:19:18.302Z,73.90
2018-06-03T04:21:47.641Z,73.78
2018-06-03T04:24:16.980Z,73.66
2018-06-03T04:26:46.318Z,73.46
2018-06-03T04:29:15.617Z,73.51
2018-06-03T04:31:44.927Z,73.62
2018-06-03T04:34:14.289Z,73.49
2018-06-03T04:36:44.381Z,73.70
2018-06-03T04:39:13.724Z,73.69
2018-06-03T04:41:43.042Z,73.52
2018-06-03T04:44:12.360Z,73.26
2018-06-03T04:46:41.686Z,73.02
2018-06-03T04:49:11.006Z,72.83
2018-06-03T04:51:41.106Z,72.35
2018-06-03T04:54:10.440Z,72.55
2018-06-03T04:56:40.541Z,72.54
2018-06-03T04:59:10.661Z,72.33
2018-06-03T05:01:39.983Z,72.21
2018-06-03T05:04:10.089Z,72.19
2018-06-03T05:06:39.420Z,72.14
2018-06-03T05:09:08.726Z,72.18
2018-06-03T05:11:38.047Z,72.14
2018-06-03T05:14:07.376Z,72.07
2018-06-03T05:16:37.450Z,72.15
2018-06-03T05:19:06.804Z,72.00
2018-06-03T05:21:36.124Z,71.54
2018-06-03T05:24:06.241Z,71.42
2018-06-03T05:26:35.569Z,71.28
2018-06-03T05:29:05.669Z,71.22
2018-06-03T05:31:35.764Z,71.05
2018-06-03T05:34:05.103Z,70.84
2018-06-03T05:36:35.185Z,70.70
2018-06-03T05:39:04.513Z,70.50
2018-06-03T05:42:08.741Z,71.55
2018-06-03T05:44:39.302Z,71.58
2018-06-03T05:47:09.817Z,71.32
2018-06-03T05:49:40.386Z,70.95
2018-06-03T05:52:10.938Z,70.55
2018-06-03T05:54:41.466Z,70.74
2018-06-03T05:57:12.026Z,70.55
2018-06-03T05:59:42.581Z,70.35
2018-06-03T06:02:13.123Z,70.43
2018-06-03T06:04:43.677Z,70.47
2018-06-03T06:07:14.220Z,70.78
2018-06-03T06:09:44.776Z,70.46
2018-06-03T06:12:16.754Z,70.21
2018-06-03T06:14:47.342Z,69.69
2018-06-03T06:17:18.209Z,69.23
2018-06-03T06:19:48.884Z,68.86
2018-06-03T06:22:19.429Z,68.10
2018-06-03T06:24:50.008Z,67.37
2018-06-03T06:27:20.580Z,66.50
2018-06-03T06:29:51.161Z,65.15
2018-06-03T06:32:22.076Z,65.43
2018-06-03T06:34:52.581Z,65.76
2018-06-03T06:37:23.157Z,66.28
2018-06-03T06:39:53.704Z,66.34
2018-06-03T06:42:24.331Z,66.84
2018-06-03T06:44:54.862Z,66.69
2018-06-03T06:47:25.411Z,67.36
2018-06-03T06:49:55.953Z,67.65
2018-06-03T06:52:26.501Z,67.47
2018-06-03T06:54:57.030Z,67.20
2018-06-03T06:57:27.541Z,67.83
2018-06-03T06:59:58.090Z,67.64
2018-06-03T07:02:28.618Z,67.34
2018-06-03T07:04:58.881Z,66.39
2018-06-03T07:07:29.282Z,66.77
2018-06-03T07:09:59.839Z,66.40
2018-06-03T07:12:30.443Z,65.64
2018-06-03T07:15:01.008Z,65.53
2018-06-03T07:17:31.528Z,65.55
2018-06-03T07:20:02.058Z,65.66
2018-06-03T07:22:32.596Z,66.01
2018-06-03T07:25:03.133Z,65.74
2018-06-03T07:27:33.661Z,66.08
2018-06-03T07:30:04.308Z,65.71
2018-06-03T07:32:34.845Z,65.71
2018-06-03T07:35:05.545Z,65.96
2018-06-03T07:37:36.102Z,66.09
2018-06-03T07:40:06.683Z,66.48
2018-06-03T07:42:37.212Z,66.19
2018-06-03T07:45:07.780Z,66.72
2018-06-03T07:47:38.365Z,65.75
2018-06-03T07:50:08.902Z,65.09
2018-06-03T07:52:39.446Z,65.30
2018-06-03T07:55:15.373Z,64.55
2018-06-03T07:57:45.818Z,63.77
2018-06-03T08:00:16.364Z,62.15
2018-06-03T08:02:46.918Z,60.56
2018-06-03T08:05:17.475Z,60.43
2018-06-03T08:07:48.008Z,60.20
2018-06-03T08:10:18.575Z,60.52
2018-06-03T08:12:49.112Z,58.20
2018-06-03T08:15:19.635Z,56.67
2018-06-03T08:17:50.236Z,56.54
2018-06-03T08:20:20.802Z,55.57
2018-06-03T08:22:51.044Z,55.55
2018-06-03T08:25:21.470Z,55.24
2018-06-03T08:27:52.013Z,52.31
2018-06-03T08:30:22.547Z,53.30
2018-06-03T08:32:53.131Z,53.69
2018-06-03T08:35:23.774Z,54.06
2018-06-03T08:37:54.341Z,53.68
2018-06-03T08:40:24.898Z,53.73
2018-06-03T08:42:55.446Z,53.38
2018-06-03T08:45:26.017Z,53.70
2018-06-03T08:47:56.570Z,53.24
2018-06-03T08:50:27.134Z,53.88
2018-06-03T08:52:57.665Z,54.57
2018-06-03T08:55:29.657Z,54.42
2018-06-03T08:58:00.238Z,54.81
2018-06-03T09:00:33.746Z,54.35
2018-06-03T09:03:04.293Z,53.81
2018-06-03T09:05:34.846Z,53.98
2018-06-03T09:08:05.527Z,53.82
2018-06-03T09:10:36.075Z,53.65
2018-06-03T09:13:06.826Z,52.66
2018-06-03T09:15:37.314Z,52.62
2018-06-03T09:18:07.879Z,52.71
2018-06-03T09:20:38.479Z,52.84
2018-06-03T09:23:08.992Z,52.42
2018-06-03T09:25:39.543Z,52.59
2018-06-03T09:28:10.086Z,51.41
2018-06-03T09:30:40.650Z,51.74
2018-06-03T09:33:11.221Z,50.71
2018-06-03T09:35:42.333Z,51.57
2018-06-03T09:38:12.581Z,51.99
2018-06-03T09:40:42.998Z,52.57
2018-06-03T09:43:13.542Z,52.32
2018-06-03T09:45:44.097Z,52.41
2018-06-03T09:48:14.636Z,52.06
2018-06-03T09:50:45.162Z,52.13
2018-06-03T09:53:15.770Z,52.28
2018-06-03T09:55:46.318Z,53.12
2018-06-03T09:58:16.849Z,54.14
2018-06-03T10:00:47.099Z,54.83
2018-06-03T10:03:17.562Z,55.68
2018-06-03T10:05:48.137Z,55.74
2018-06-03T10:08:18.724Z,56.38
2018-06-03T10:10:49.250Z,56.35
2018-06-03T10:13:19.871Z,56.57
2018-06-03T10:15:50.052Z,55.19
2018-06-03T10:18:20.516Z,55.44
2018-06-03T10:20:51.077Z,55.86
2018-06-03T10:23:21.641Z,55.68
2018-06-03T10:25:51.896Z,54.95
2018-06-03T10:28:22.406Z,55.30
2018-06-03T10:30:52.946Z,54.67
2018-06-03T10:33:23.509Z,54.31
2018-06-03T10:35:54.075Z,53.44
2018-06-03T10:38:24.630Z,52.17
2018-06-03T10:40:55.178Z,51.82
2018-06-03T10:43:25.710Z,51.07
2018-06-03T10:45:56.287Z,50.54
2018-06-03T10:48:26.842Z,49.90
2018-06-03T10:50:57.625Z,49.34
2018-06-03T10:53:28.218Z,49.95
2018-06-03T10:55:58.768Z,49.44
2018-06-03T10:58:29.303Z,47.87
2018-06-03T11:01:00.541Z,47.32
2018-06-03T11:03:31.119Z,46.62
2018-06-03T11:06:01.747Z,45.91
2018-06-03T11:08:32.456Z,44.74
2018-06-03T11:11:03.018Z,42.18
2018-06-03T11:13:33.564Z,41.66
2018-06-03T11:16:04.196Z,40.76
2018-06-03T11:18:34.763Z,40.82
2018-06-03T11:21:05.334Z,39.49
2018-06-03T11:23:35.950Z,40.48
2018-06-03T11:26:06.619Z,40.52
2018-06-03T11:28:37.166Z,40.89
2018-06-03T11:31:07.727Z,39.56
2018-06-03T11:33:38.284Z,40.83
2018-06-03T11:36:08.866Z,41.16
2018-06-03T11:38:39.547Z,40.46
2018-06-03T11:41:10.117Z,40.42
2018-06-03T11:43:40.654Z,39.51
2018-06-03T11:46:11.206Z,40.23
2018-06-03T11:48:41.748Z,40.37
2018-06-03T11:51:12.319Z,39.71
2018-06-03T11:53:42.851Z,39.46
2018-06-03T11:56:13.406Z,39.23
2018-06-03T11:58:53.021Z,38.93
2018-06-03T12:01:23.759Z,38.08
2018-06-03T12:03:54.215Z,38.52
2018-06-03T12:06:24.778Z,38.81
2018-06-03T12:08:55.347Z,36.52
2018-06-03T12:11:25.872Z,37.50
2018-06-03T12:13:56.464Z,37.07
2018-06-03T12:16:27.022Z,34.36
2018-06-03T12:18:57.545Z,34.24
2018-06-03T12:21:28.117Z,35.11
2018-06-03T12:23:58.683Z,35.30
2018-06-03T12:26:29.276Z,35.18
2018-06-03T12:29:00.717Z,35.69
2018-06-03T12:31:31.806Z,35.01
2018-06-03T12:34:02.379Z,36.61
2018-06-03T12:36:32.950Z,35.54
2018-06-03T12:39:03.593Z,33.35
2018-06-03T12:41:34.142Z,35.54
2018-06-03T12:44:04.824Z,35.79
2018-06-03T12:46:35.457Z,36.30
2018-06-03T12:49:06.062Z,36.86
2018-06-03T12:51:36.643Z,36.25
2018-06-03T12:54:07.373Z,37.19
2018-06-03T12:56:37.948Z,36.91
2018-06-03T12:59:08.507Z,37.53
2018-06-03T13:01:39.080Z,37.00
2018-06-03T13:04:09.619Z,38.25
2018-06-03T13:06:40.137Z,37.91
2018-06-03T13:09:10.748Z,37.90
2018-06-03T13:11:41.340Z,39.00
2018-06-03T13:14:11.865Z,38.91
2018-06-03T13:16:42.456Z,38.66
2018-06-03T13:19:12.997Z,39.08
2018-06-03T13:21:43.568Z,38.96
2018-06-03T13:24:14.111Z,38.40
2018-06-03T13:26:44.676Z,36.24
2018-06-03T13:29:15.228Z,35.95
2018-06-03T13:31:45.764Z,33.90
2018-06-03T13:34:16.334Z,32.85
2018-06-03T13:36:46.891Z,32.80
2018-06-03T13:39:17.443Z,32.75
2018-06-03T13:41:47.968Z,32.91
2018-06-03T13:44:18.541Z,32.88
2018-06-03T13:46:49.073Z,33.90
2018-06-03T13:49:19.592Z,33.68
2018-06-03T13:51:50.188Z,35.51
2018-06-03T13:54:20.744Z,34.28
2018-06-03T13:56:51.339Z,33.16
2018-06-03T13:59:21.904Z,34.00
2018-06-03T14:01:52.462Z,34.24
2018-06-03T14:04:22.989Z,34.76
2018-06-03T14:06:53.554Z,35.14
2018-06-03T14:09:24.141Z,35.42
2018-06-03T14:11:54.713Z,36.94
2018-06-03T14:14:25.260Z,38.53
2018-06-03T14:16:55.820Z,38.93
2018-06-03T14:19:26.366Z,38.41
2018-06-03T14:21:56.925Z,38.81
2018-06-03T14:24:27.504Z,38.62
2018-06-03T14:26:58.049Z,38.21
2018-06-03T14:29:28.630Z,38.30
2018-06-03T14:31:58.914Z,37.68
2018-06-03T14:34:29.327Z,36.80
2018-06-03T14:36:59.869Z,37.92
2018-06-03T14:39:30.467Z,38.24
2018-06-03T14:42:01.004Z,37.50
2018-06-03T14:44:31.663Z,36.81
2018-06-03T14:47:02.171Z,36.66
2018-06-03T14:49:32.748Z,36.25
2018-06-03T14:52:03.316Z,37.79
2018-06-03T14:54:33.882Z,38.01
2018-06-03T14:57:04.496Z,37.99
2018-06-03T14:59:35.106Z,37.97
2018-06-03T15:02:05.719Z,37.98
2018-06-03T15:04:36.301Z,38.79
2018-06-03T15:07:06.927Z,38.66
2018-06-03T15:09:37.485Z,39.88
2018-06-03T15:12:08.077Z,39.79
2018-06-03T15:14:38.673Z,39.75
2018-06-03T15:17:09.205Z,40.17
2018-06-03T15:19:39.784Z,39.86
2018-06-03T15:22:10.354Z,40.06
2018-06-03T15:24:40.633Z,40.31
2018-06-03T15:27:11.072Z,40.77
2018-06-03T15:29:41.651Z,41.02
2018-06-03T15:32:12.191Z,40.34
2018-06-03T15:34:42.738Z,40.48
2018-06-03T15:37:13.330Z,40.64
2018-06-03T15:39:43.879Z,40.88
2018-06-03T15:42:14.465Z,39.48
2018-06-03T15:44:44.969Z,40.10
2018-06-03T15:47:15.647Z,40.48
2018-06-03T15:49:46.862Z,40.08
2018-06-03T15:52:17.417Z,40.78
2018-06-03T15:54:47.967Z,41.14
2018-06-03T15:57:18.535Z,41.34
2018-06-03T15:59:49.310Z,41.38
2018-06-03T16:02:19.840Z,40.96
2018-06-03T16:04:50.392Z,41.25
2018-06-03T16:07:20.941Z,40.51
2018-06-03T16:09:51.502Z,41.17
2018-06-03T16:12:22.057Z,41.61
2018-06-03T16:14:52.614Z,42.02
2018-06-03T16:17:23.153Z,41.18
2018-06-03T16:19:53.701Z,41.66
2018-06-03T16:22:24.336Z,41.34
2018-06-03T16:24:54.815Z,42.50
2018-06-03T16:27:25.347Z,42.16
2018-06-03T16:29:55.917Z,42.98
2018-06-03T16:32:26.447Z,43.13
2018-06-03T16:34:56.958Z,43.75
2018-06-03T16:37:27.514Z,44.69
2018-06-03T16:39:58.814Z,44.88
2018-06-03T16:42:29.428Z,44.70
2018-06-03T16:44:59.977Z,44.29
2018-06-03T16:47:30.526Z,44.33
2018-06-03T16:50:01.083Z,43.97
2018-06-03T16:52:31.636Z,43.97
2018-06-03T16:55:02.162Z,44.74
2018-06-03T16:57:32.750Z,43.99
2018-06-03T17:00:03.349Z,44.94
2018-06-03T17:02:33.883Z,44.00
2018-06-03T17:05:04.430Z,44.26
2018-06-03T17:07:34.956Z,43.75
2018-06-03T17:10:05.641Z,43.47
2018-06-03T17:12:36.222Z,44.29
2018-06-03T17:15:06.793Z,44.11
2018-06-03T17:17:37.315Z,43.44
2018-06-03T17:20:07.893Z,43.64
2018-06-03T17:22:38.541Z,43.68
2018-06-03T17:25:09.072Z,44.39
2018-06-03T17:27:39.614Z,44.15
2018-06-03T17:30:10.158Z,44.18
2018-06-03T17:32:40.707Z,43.94
2018-06-03T17:35:11.230Z,43.72
2018-06-03T17:37:41.786Z,43.56
2018-06-03T17:40:12.314Z,43.94
2018-06-03T17:42:42.872Z,44.01
2018-06-03T17:45:13.503Z,43.04
2018-06-03T17:47:44.259Z,44.00
2018-06-03T17:50:14.769Z,43.91
2018-06-03T17:52:45.329Z,44.07
2018-06-03T17:55:15.864Z,43.53
2018-06-03T17:57:46.410Z,44.46
2018-06-03T18:00:16.966Z,44.42
2018-06-03T18:02:47.535Z,45.14
2018-06-03T18:05:18.132Z,45.81
2018-06-03T18:07:48.703Z,46.29
2018-06-03T18:10:19.309Z,46.87
2018-06-03T18:12:49.847Z,46.88
2018-06-03T18:15:20.387Z,47.52
2018-06-03T18:17:50.940Z,47.97
2018-06-03T18:20:21.152Z,47.62
2018-06-03T18:22:51.709Z,47.29
2018-06-03T18:25:22.235Z,47.00
2018-06-03T18:27:52.791Z,47.45
2018-06-03T18:30:23.364Z,47.40
2018-06-03T18:35:55.103Z,48.55
2018-06-03T18:38:25.664Z,48.43
2018-06-03T18:40:56.326Z,48.35
2018-06-03T18:43:26.862Z,49.08
2018-06-03T18:45:57.421Z,49.25
2018-06-03T18:48:27.925Z,49.41
2018-06-03T18:50:59.826Z,49.72
2018-06-03T18:53:30.380Z,50.01
2018-06-03T18:56:01.970Z,50.68
2018-06-03T18:58:32.521Z,51.14
2018-06-03T19:01:04.113Z,51.35
2018-06-03T19:03:34.696Z,51.48
2018-06-03T19:06:05.340Z,52.03
2018-06-03T19:08:35.885Z,53.10
2018-06-03T19:11:06.577Z,53.62
2018-06-03T19:13:37.237Z,52.68
2018-06-03T19:16:07.931Z,53.24
2018-06-03T19:18:38.561Z,53.96
2018-06-03T19:21:09.169Z,53.72
2018-06-03T19:23:40.308Z,54.04
2018-06-03T19:26:10.792Z,53.49
2018-06-03T19:28:41.380Z,53.18
2018-06-03T19:31:11.983Z,53.49
2018-06-03T19:36:11.891Z,53.98
2018-06-03T19:38:42.497Z,54.40
2018-06-03T19:41:13.030Z,54.57
2018-06-03T19:43:44.618Z,54.61
2018-06-03T19:46:15.229Z,54.52
2018-06-03T19:48:45.830Z,55.36
2018-06-03T19:51:16.386Z,55.21
2018-06-03T19:53:47.050Z,55.98
2018-06-03T19:56:17.860Z,56.52
2018-06-03T19:58:48.405Z,56.15
2018-06-03T20:01:19.098Z,56.52
2018-06-03T20:03:49.921Z,56.50
2018-06-03T20:06:20.478Z,56.78
2018-06-03T20:08:51.059Z,56.69
2018-06-03T20:11:22.443Z,57.42
2018-06-03T20:13:53.054Z,57.56
2018-06-03T20:16:23.857Z,57.36
2018-06-03T20:18:54.560Z,57.50
2018-06-03T20:21:25.244Z,57.41
2018-06-03T20:23:55.822Z,57.87
2018-06-03T20:26:26.405Z,58.08
2018-06-03T20:28:56.953Z,58.32
2018-06-03T20:31:27.532Z,57.78
2018-06-03T20:33:58.070Z,58.75
2018-06-03T20:36:28.663Z,58.49
2018-06-03T20:38:59.339Z,58.59
2018-06-03T20:41:30.057Z,58.25
2018-06-03T20:44:00.707Z,58.39
2018-06-03T20:46:31.301Z,58.39
2018-06-03T20:49:01.883Z,58.33
2018-06-03T20:51:32.537Z,58.57
2018-06-03T20:54:03.113Z,58.47
2018-06-03T20:56:33.763Z,58.75
2018-06-03T20:59:04.471Z,58.77
2018-06-03T21:01:35.026Z,59.03
2018-06-03T21:04:05.725Z,59.22
2018-06-03T21:06:36.317Z,59.51
2018-06-03T21:09:09.204Z,59.43
2018-06-03T21:11:39.793Z,59.59
2018-06-03T21:14:10.380Z,59.27
2018-06-03T21:16:40.996Z,59.08
2018-06-03T21:19:11.619Z,59.05
2018-06-03T21:21:42.220Z,59.55
2018-06-03T21:24:13.953Z,59.32
2018-06-03T21:26:44.761Z,58.91
2018-06-03T21:29:17.384Z,59.31
2018-06-03T21:31:48.009Z,59.51
2018-06-03T21:34:18.253Z,60.02
2018-06-03T21:36:48.722Z,60.16
2018-06-03T21:39:19.357Z,60.28
2018-06-03T21:41:49.982Z,60.21
2018-06-03T21:44:20.602Z,60.76
2018-06-03T21:46:51.156Z,60.96
2018-06-03T21:49:21.771Z,61.30
2018-06-03T21:51:52.384Z,61.00
2018-06-03T21:54:22.968Z,61.40
2018-06-03T21:56:53.553Z,61.55
2018-06-03T21:59:24.153Z,62.14
2018-06-03T22:01:54.756Z,62.34
2018-06-03T22:04:25.365Z,62.51
2018-06-03T22:06:55.955Z,63.15
2018-06-03T22:09:27.066Z,63.38
2018-06-03T22:11:58.311Z,63.16
2018-06-03T22:14:29.369Z,63.42
2018-06-03T22:17:00.031Z,62.97
2018-06-03T22:19:30.602Z,63.02
2018-06-03T22:22:01.189Z,63.22
2018-06-03T22:24:31.820Z,63.60
2018-06-03T22:27:02.452Z,63.65
2018-06-03T22:29:33.081Z,63.86
2018-06-03T22:32:03.693Z,64.08
2018-06-03T22:34:34.289Z,63.97
2018-06-03T22:37:04.913Z,64.19
2018-06-03T22:39:35.551Z,63.67
2018-06-03T22:42:06.570Z,63.90
2018-06-03T22:44:37.242Z,63.65
2018-06-03T22:47:07.821Z,63.62
2018-06-03T22:49:38.450Z,63.51
2018-06-03T22:52:09.062Z,63.67
2018-06-03T22:54:39.320Z,63.15
2018-06-03T22:57:53.903Z,63.25
2018-06-03T23:00:29.335Z,62.81
2018-06-03T23:03:04.835Z,62.71
2018-06-03T23:05:36.331Z,63.05
2018-06-03T23:08:07.233Z,63.17
2018-06-03T23:10:37.867Z,62.84
2018-06-03T23:13:08.501Z,63.32
2018-06-03T23:15:39.105Z,62.88
2018-06-03T23:18:10.329Z,62.53
2018-06-03T23:20:40.924Z,62.99
2018-06-03T23:23:11.550Z,63.26
2018-06-03T23:25:42.154Z,63.37
2018-06-03T23:28:12.843Z,63.63
2018-06-03T23:30:43.480Z,63.82
2018-06-03T23:33:14.100Z,63.33
2018-06-03T23:35:44.716Z,64.14
2018-06-03T23:38:15.296Z,63.87
2018-06-03T23:40:45.955Z,64.74
2018-06-03T23:43:16.569Z,64.30
2018-06-03T23:45:47.193Z,64.52
2018-06-03T23:48:17.806Z,64.91
2018-06-03T23:50:48.391Z,64.70
2018-06-03T23:53:19.006Z,65.33
2018-06-03T23:55:49.653Z,65.30
2018-06-03T23:58:20.220Z,65.52
